sensor_id;sensor_type;location;lat;lon;timestamp;temperature;humidity
19805;DHT22;10062;51.052;13.756;2023-08-20T00:00:04;25.60;1.00
19805;DHT22;10062;51.052;13.756;2023-08-20T00:02:43;25.60;1.00
19805;DHT22;10062;51.052;13.756;2023-08-20T00:05:18;25.60;1.00
19805;DHT22;10062;51.052;13.756;2023-08-20T00:07:50;25.60;1.00
19805;DHT22;10062;51.052;13.756;2023-08-20T00:10:22;25.60;1.00
19805;DHT22;10062;51.052;13.756;2023-08-20T00:12:54;25.60;1.00
19805;DHT22;10062;51.052;13.756;2023-08-20T00:15:26;25.50;99.90
19805;DHT22;10062;51.052;13.756;2023-08-20T00:17:58;25.60;99.90
19805;DHT22;10062;51.052;13.756;2023-08-20T00:20:32;25.60;11.50
19805;DHT22;10062;51.052;13.756;2023-08-20T00:23:05;25.60;99.90
19805;DHT22;10062;51.052;13.756;2023-08-20T00:25:37;25.60;99.90
19805;DHT22;10062;51.052;13.756;2023-08-20T00:28:09;25.60;99.90
19805;DHT22;10062;51.052;13.756;2023-08-20T00:30:41;25.60;99.90
19805;DHT22;10062;51.052;13.756;2023-08-20T00:33:13;25.50;99.90
19805;DHT22;10062;51.052;13.756;2023-08-20T00:35:47;25.40;1.00
19805;DHT22;10062;51.052;13.756;2023-08-20T00:38:19;25.40;1.00
19805;DHT22;10062;51.052;13.756;2023-08-20T00:40:51;25.30;1.00
19805;DHT22;10062;51.052;13.756;2023-08-20T00:43:22;25.10;1.00
19805;DHT22;10062;51.052;13.756;2023-08-20T00:45:54;25.00;99.90
19805;DHT22;10062;51.052;13.756;2023-08-20T00:48:26;25.10;99.90
19805;DHT22;10062;51.052;13.756;2023-08-20T00:50:59;25.10;99.90
19805;DHT22;10062;51.052;13.756;2023-08-20T00:53:31;25.20;1.00
19805;DHT22;10062;51.052;13.756;2023-08-20T00:56:03;25.30;1.00
19805;DHT22;10062;51.052;13.756;2023-08-20T00:58:35;25.30;1.00
19805;DHT22;10062;51.052;13.756;2023-08-20T01:01:07;25.40;1.00
19805;DHT22;10062;51.052;13.756;2023-08-20T01:03:38;25.40;1.00
19805;DHT22;10062;51.052;13.756;2023-08-20T01:06:18;25.50;99.90
19805;DHT22;10062;51.052;13.756;2023-08-20T01:08:58;25.50;99.90
19805;DHT22;10062;51.052;13.756;2023-08-20T01:11:35;25.60;1.00
19805;DHT22;10062;51.052;13.756;2023-08-20T01:14:14;25.60;99.90
19805;DHT22;10062;51.052;13.756;2023-08-20T01:16:46;25.30;1.00
19805;DHT22;10062;51.052;13.756;2023-08-20T01:19:20;25.30;1.00
19805;DHT22;10062;51.052;13.756;2023-08-20T01:22:13;25.30;99.90
19805;DHT22;10062;51.052;13.756;2023-08-20T01:24:53;25.30;99.90
19805;DHT22;10062;51.052;13.756;2023-08-20T01:27:36;25.20;99.90
19805;DHT22;10062;51.052;13.756;2023-08-20T01:30:12;25.20;1.00
19805;DHT22;10062;51.052;13.756;2023-08-20T01:32:45;25.30;1.00
19805;DHT22;10062;51.052;13.756;2023-08-20T01:35:18;25.30;1.00
19805;DHT22;10062;51.052;13.756;2023-08-20T01:37:50;25.30;1.00
19805;DHT22;10062;51.052;13.756;2023-08-20T01:40:21;25.40;1.00
19805;DHT22;10062;51.052;13.756;2023-08-20T01:42:53;25.40;1.00
19805;DHT22;10062;51.052;13.756;2023-08-20T01:45:26;25.20;1.00
19805;DHT22;10062;51.052;13.756;2023-08-20T01:47:58;25.30;1.00
19805;DHT22;10062;51.052;13.756;2023-08-20T01:50:30;25.30;1.00
19805;DHT22;10062;51.052;13.756;2023-08-20T01:53:02;25.30;1.00
19805;DHT22;10062;51.052;13.756;2023-08-20T01:55:34;25.10;1.00
19805;DHT22;10062;51.052;13.756;2023-08-20T01:58:06;25.10;1.00
19805;DHT22;10062;51.052;13.756;2023-08-20T02:00:39;25.10;1.00
19805;DHT22;10062;51.052;13.756;2023-08-20T02:03:11;25.10;1.00
19805;DHT22;10062;51.052;13.756;2023-08-20T02:05:43;25.10;1.00
19805;DHT22;10062;51.052;13.756;2023-08-20T02:08:14;25.10;1.00
19805;DHT22;10062;51.052;13.756;2023-08-20T02:10:46;25.20;1.00
19805;DHT22;10062;51.052;13.756;2023-08-20T02:13:18;25.10;1.00
19805;DHT22;10062;51.052;13.756;2023-08-20T02:15:59;25.10;1.00
19805;DHT22;10062;51.052;13.756;2023-08-20T02:18:32;24.90;99.90
19805;DHT22;10062;51.052;13.756;2023-08-20T02:21:03;24.90;23.20
19805;DHT22;10062;51.052;13.756;2023-08-20T02:23:35;24.90;99.90
19805;DHT22;10062;51.052;13.756;2023-08-20T02:26:10;24.90;1.00
19805;DHT22;10062;51.052;13.756;2023-08-20T02:28:42;24.90;99.90
19805;DHT22;10062;51.052;13.756;2023-08-20T02:31:15;25.00;99.90
19805;DHT22;10062;51.052;13.756;2023-08-20T02:33:47;24.90;99.90
19805;DHT22;10062;51.052;13.756;2023-08-20T02:36:18;24.80;1.00
19805;DHT22;10062;51.052;13.756;2023-08-20T02:38:50;24.80;1.00
19805;DHT22;10062;51.052;13.756;2023-08-20T02:41:22;24.90;1.00
19805;DHT22;10062;51.052;13.756;2023-08-20T02:43:54;24.90;1.00
19805;DHT22;10062;51.052;13.756;2023-08-20T02:46:27;25.00;99.90
19805;DHT22;10062;51.052;13.756;2023-08-20T02:48:59;25.00;1.00
19805;DHT22;10062;51.052;13.756;2023-08-20T02:51:32;25.00;1.00
19805;DHT22;10062;51.052;13.756;2023-08-20T02:54:04;25.10;1.00
19805;DHT22;10062;51.052;13.756;2023-08-20T02:56:36;25.00;1.00
19805;DHT22;10062;51.052;13.756;2023-08-20T02:59:07;24.80;99.90
19805;DHT22;10062;51.052;13.756;2023-08-20T03:01:41;24.70;1.00
19805;DHT22;10062;51.052;13.756;2023-08-20T03:04:13;24.80;1.00
19805;DHT22;10062;51.052;13.756;2023-08-20T03:06:45;24.80;99.90
19805;DHT22;10062;51.052;13.756;2023-08-20T03:09:16;24.80;1.00
19805;DHT22;10062;51.052;13.756;2023-08-20T03:11:48;24.80;78.50
19805;DHT22;10062;51.052;13.756;2023-08-20T03:14:20;24.90;1.00
19805;DHT22;10062;51.052;13.756;2023-08-20T03:16:53;24.80;99.90
19805;DHT22;10062;51.052;13.756;2023-08-20T03:19:25;24.90;99.90
19805;DHT22;10062;51.052;13.756;2023-08-20T03:21:56;24.80;99.90
19805;DHT22;10062;51.052;13.756;2023-08-20T03:24:28;24.80;99.90
19805;DHT22;10062;51.052;13.756;2023-08-20T03:27:00;24.80;99.90
19805;DHT22;10062;51.052;13.756;2023-08-20T03:29:32;24.60;1.00
19805;DHT22;10062;51.052;13.756;2023-08-20T03:32:05;24.60;99.90
19805;DHT22;10062;51.052;13.756;2023-08-20T03:34:37;24.70;99.90
19805;DHT22;10062;51.052;13.756;2023-08-20T03:37:09;24.50;1.00
19805;DHT22;10062;51.052;13.756;2023-08-20T03:39:41;24.60;1.00
19805;DHT22;10062;51.052;13.756;2023-08-20T03:42:13;24.60;1.00
19805;DHT22;10062;51.052;13.756;2023-08-20T03:44:45;24.60;1.00
19805;DHT22;10062;51.052;13.756;2023-08-20T03:47:18;24.70;99.90
19805;DHT22;10062;51.052;13.756;2023-08-20T03:49:50;24.60;1.00
19805;DHT22;10062;51.052;13.756;2023-08-20T03:52:22;24.60;99.90
19805;DHT22;10062;51.052;13.756;2023-08-20T03:54:54;24.50;1.00
19805;DHT22;10062;51.052;13.756;2023-08-20T03:57:26;24.30;1.00
19805;DHT22;10062;51.052;13.756;2023-08-20T03:59:57;24.30;1.00
19805;DHT22;10062;51.052;13.756;2023-08-20T04:02:31;24.40;1.00
19805;DHT22;10062;51.052;13.756;2023-08-20T04:05:03;24.40;1.00
19805;DHT22;10062;51.052;13.756;2023-08-20T04:07:35;24.40;1.00
19805;DHT22;10062;51.052;13.756;2023-08-20T04:10:08;24.40;1.00
19805;DHT22;10062;51.052;13.756;2023-08-20T04:12:40;24.40;1.00
19805;DHT22;10062;51.052;13.756;2023-08-20T04:15:12;24.40;1.00
19805;DHT22;10062;51.052;13.756;2023-08-20T04:17:47;24.40;23.20
19805;DHT22;10062;51.052;13.756;2023-08-20T04:20:20;24.30;1.00
19805;DHT22;10062;51.052;13.756;2023-08-20T04:22:52;24.30;1.00
19805;DHT22;10062;51.052;13.756;2023-08-20T04:25:24;24.30;1.00
19805;DHT22;10062;51.052;13.756;2023-08-20T04:27:56;24.40;1.00
19805;DHT22;10062;51.052;13.756;2023-08-20T04:30:28;24.50;1.00
19805;DHT22;10062;51.052;13.756;2023-08-20T04:33:01;24.40;48.70
19805;DHT22;10062;51.052;13.756;2023-08-20T04:35:33;24.40;99.90
19805;DHT22;10062;51.052;13.756;2023-08-20T04:38:05;24.50;99.90
19805;DHT22;10062;51.052;13.756;2023-08-20T04:40:38;24.60;1.00
19805;DHT22;10062;51.052;13.756;2023-08-20T04:43:10;24.50;99.90
19805;DHT22;10062;51.052;13.756;2023-08-20T04:45:42;24.50;99.90
19805;DHT22;10062;51.052;13.756;2023-08-20T04:48:16;24.50;99.90
19805;DHT22;10062;51.052;13.756;2023-08-20T04:50:47;24.60;99.90
19805;DHT22;10062;51.052;13.756;2023-08-20T04:53:19;27.30;99.90
19805;DHT22;10062;51.052;13.756;2023-08-20T04:55:52;24.60;99.90
19805;DHT22;10062;51.052;13.756;2023-08-20T04:58:24;24.60;99.90
19805;DHT22;10062;51.052;13.756;2023-08-20T05:00:56;24.60;99.90
19805;DHT22;10062;51.052;13.756;2023-08-20T05:03:30;24.60;99.90
19805;DHT22;10062;51.052;13.756;2023-08-20T05:06:02;24.50;99.90
19805;DHT22;10062;51.052;13.756;2023-08-20T05:08:34;24.50;1.00
19805;DHT22;10062;51.052;13.756;2023-08-20T05:11:06;24.50;1.00
19805;DHT22;10062;51.052;13.756;2023-08-20T05:13:38;24.60;99.90
19805;DHT22;10062;51.052;13.756;2023-08-20T05:16:10;24.70;99.90
19805;DHT22;10062;51.052;13.756;2023-08-20T05:18:43;24.70;99.90
19805;DHT22;10062;51.052;13.756;2023-08-20T05:21:15;24.80;99.90
19805;DHT22;10062;51.052;13.756;2023-08-20T05:23:46;24.90;99.90
19805;DHT22;10062;51.052;13.756;2023-08-20T05:26:18;24.90;99.90
19805;DHT22;10062;51.052;13.756;2023-08-20T05:28:50;24.90;96.20
19805;DHT22;10062;51.052;13.756;2023-08-20T05:31:22;25.10;1.00
19805;DHT22;10062;51.052;13.756;2023-08-20T05:33:56;25.10;1.00
19805;DHT22;10062;51.052;13.756;2023-08-20T05:36:28;25.10;1.00
19805;DHT22;10062;51.052;13.756;2023-08-20T05:39:01;25.20;1.00
19805;DHT22;10062;51.052;13.756;2023-08-20T05:41:33;25.20;1.00
19805;DHT22;10062;51.052;13.756;2023-08-20T05:44:05;25.20;1.00
19805;DHT22;10062;51.052;13.756;2023-08-20T05:46:37;25.20;64.80
19805;DHT22;10062;51.052;13.756;2023-08-20T05:49:11;25.30;1.00
19805;DHT22;10062;51.052;13.756;2023-08-20T05:51:43;25.30;99.90
19805;DHT22;10062;51.052;13.756;2023-08-20T05:54:16;25.30;1.00
19805;DHT22;10062;51.052;13.756;2023-08-20T05:56:48;25.50;1.00
19805;DHT22;10062;51.052;13.756;2023-08-20T05:59:19;25.50;1.00
19805;DHT22;10062;51.052;13.756;2023-08-20T06:01:53;25.50;1.00
19805;DHT22;10062;51.052;13.756;2023-08-20T06:04:26;27.80;1.00
19805;DHT22;10062;51.052;13.756;2023-08-20T06:06:58;25.60;1.00
19805;DHT22;10062;51.052;13.756;2023-08-20T06:09:30;25.60;1.00
19805;DHT22;10062;51.052;13.756;2023-08-20T06:12:01;25.70;1.00
19805;DHT22;10062;51.052;13.756;2023-08-20T06:14:33;25.80;1.00
19805;DHT22;10062;51.052;13.756;2023-08-20T06:17:05;25.80;1.00
19805;DHT22;10062;51.052;13.756;2023-08-20T06:19:38;26.00;1.00
19805;DHT22;10062;51.052;13.756;2023-08-20T06:22:10;25.80;1.00
19805;DHT22;10062;51.052;13.756;2023-08-20T06:24:42;25.90;1.00
19805;DHT22;10062;51.052;13.756;2023-08-20T06:27:13;25.80;1.00
19805;DHT22;10062;51.052;13.756;2023-08-20T06:29:45;25.80;1.00
19805;DHT22;10062;51.052;13.756;2023-08-20T06:32:17;25.80;1.00
19805;DHT22;10062;51.052;13.756;2023-08-20T06:34:50;25.90;1.00
19805;DHT22;10062;51.052;13.756;2023-08-20T06:37:22;26.00;1.00
19805;DHT22;10062;51.052;13.756;2023-08-20T06:39:53;26.10;1.00
19805;DHT22;10062;51.052;13.756;2023-08-20T06:42:25;26.20;48.00
19805;DHT22;10062;51.052;13.756;2023-08-20T06:44:57;26.10;99.90
19805;DHT22;10062;51.052;13.756;2023-08-20T06:47:29;26.10;99.90
19805;DHT22;10062;51.052;13.756;2023-08-20T06:50:02;26.10;99.90
19805;DHT22;10062;51.052;13.756;2023-08-20T06:52:34;26.20;1.00
19805;DHT22;10062;51.052;13.756;2023-08-20T06:55:06;26.30;99.90
19805;DHT22;10062;51.052;13.756;2023-08-20T06:57:38;26.30;99.90
19805;DHT22;10062;51.052;13.756;2023-08-20T07:00:10;26.20;1.00
19805;DHT22;10062;51.052;13.756;2023-08-20T07:02:42;26.20;99.90
19805;DHT22;10062;51.052;13.756;2023-08-20T07:05:15;26.30;99.90
19805;DHT22;10062;51.052;13.756;2023-08-20T07:07:48;26.40;1.00
19805;DHT22;10062;51.052;13.756;2023-08-20T07:10:19;26.60;1.00
19805;DHT22;10062;51.052;13.756;2023-08-20T07:12:51;26.80;1.00
19805;DHT22;10062;51.052;13.756;2023-08-20T07:15:23;26.90;1.00
19805;DHT22;10062;51.052;13.756;2023-08-20T07:17:55;26.80;1.00
19805;DHT22;10062;51.052;13.756;2023-08-20T07:20:28;26.60;1.00
19805;DHT22;10062;51.052;13.756;2023-08-20T07:23:00;26.40;99.90
19805;DHT22;10062;51.052;13.756;2023-08-20T07:25:32;26.30;1.00
19805;DHT22;10062;51.052;13.756;2023-08-20T07:28:04;26.40;1.00
19805;DHT22;10062;51.052;13.756;2023-08-20T07:30:36;26.70;1.00
19805;DHT22;10062;51.052;13.756;2023-08-20T07:33:08;26.90;1.00
19805;DHT22;10062;51.052;13.756;2023-08-20T07:35:41;27.10;1.00
19805;DHT22;10062;51.052;13.756;2023-08-20T07:38:12;27.20;1.00
19805;DHT22;10062;51.052;13.756;2023-08-20T07:40:44;27.40;99.90
19805;DHT22;10062;51.052;13.756;2023-08-20T07:43:16;27.60;1.00
19805;DHT22;10062;51.052;13.756;2023-08-20T07:45:48;27.50;93.80
19805;DHT22;10062;51.052;13.756;2023-08-20T07:48:20;27.50;99.90
19805;DHT22;10062;51.052;13.756;2023-08-20T07:50:53;27.60;99.90
19805;DHT22;10062;51.052;13.756;2023-08-20T07:53:24;27.80;1.00
19805;DHT22;10062;51.052;13.756;2023-08-20T07:55:56;28.20;1.00
19805;DHT22;10062;51.052;13.756;2023-08-20T07:58:28;28.20;1.00
19805;DHT22;10062;51.052;13.756;2023-08-20T08:01:00;28.60;1.00
19805;DHT22;10062;51.052;13.756;2023-08-20T08:03:32;28.90;1.00
19805;DHT22;10062;51.052;13.756;2023-08-20T08:06:05;29.10;1.00
19805;DHT22;10062;51.052;13.756;2023-08-20T08:08:42;29.20;1.00
19805;DHT22;10062;51.052;13.756;2023-08-20T08:11:14;29.00;99.90
19805;DHT22;10062;51.052;13.756;2023-08-20T08:13:46;29.30;1.00
19805;DHT22;10062;51.052;13.756;2023-08-20T08:16:17;29.60;1.00
19805;DHT22;10062;51.052;13.756;2023-08-20T08:18:49;29.70;1.00
19805;DHT22;10062;51.052;13.756;2023-08-20T08:21:23;29.80;1.00
19805;DHT22;10062;51.052;13.756;2023-08-20T08:23:55;29.70;1.00
19805;DHT22;10062;51.052;13.756;2023-08-20T08:26:27;29.70;1.00
19805;DHT22;10062;51.052;13.756;2023-08-20T08:28:59;29.80;1.00
19805;DHT22;10062;51.052;13.756;2023-08-20T08:31:30;29.80;20.90
19805;DHT22;10062;51.052;13.756;2023-08-20T08:34:02;30.10;1.00
19805;DHT22;10062;51.052;13.756;2023-08-20T08:36:36;30.40;1.00
19805;DHT22;10062;51.052;13.756;2023-08-20T08:39:07;30.50;1.00
19805;DHT22;10062;51.052;13.756;2023-08-20T08:41:40;30.40;32.90
19805;DHT22;10062;51.052;13.756;2023-08-20T08:44:13;30.50;32.90
19805;DHT22;10062;51.052;13.756;2023-08-20T08:46:46;30.70;1.00
19805;DHT22;10062;51.052;13.756;2023-08-20T08:49:20;31.40;1.00
19805;DHT22;10062;51.052;13.756;2023-08-20T08:51:54;32.10;99.90
19805;DHT22;10062;51.052;13.756;2023-08-20T08:54:28;32.30;1.00
19805;DHT22;10062;51.052;13.756;2023-08-20T08:57:00;33.50;1.00
19805;DHT22;10062;51.052;13.756;2023-08-20T08:59:32;33.20;1.00
19805;DHT22;10062;51.052;13.756;2023-08-20T09:02:08;33.00;1.00
19805;DHT22;10062;51.052;13.756;2023-08-20T09:04:41;35.10;99.90
19805;DHT22;10062;51.052;13.756;2023-08-20T09:07:15;38.10;93.60
19805;DHT22;10062;51.052;13.756;2023-08-20T09:09:47;40.50;1.00
19805;DHT22;10062;51.052;13.756;2023-08-20T09:12:20;42.10;1.00
19805;DHT22;10062;51.052;13.756;2023-08-20T09:14:52;43.60;1.00
19805;DHT22;10062;51.052;13.756;2023-08-20T09:17:25;44.10;1.00
19805;DHT22;10062;51.052;13.756;2023-08-20T09:19:58;44.80;1.00
19805;DHT22;10062;51.052;13.756;2023-08-20T09:22:31;44.00;1.00
19805;DHT22;10062;51.052;13.756;2023-08-20T09:25:03;44.50;1.00
19805;DHT22;10062;51.052;13.756;2023-08-20T09:27:39;44.30;1.00
19805;DHT22;10062;51.052;13.756;2023-08-20T09:30:18;41.70;1.00
19805;DHT22;10062;51.052;13.756;2023-08-20T09:33:03;38.30;1.00
19805;DHT22;10062;51.052;13.756;2023-08-20T09:35:35;38.20;1.00
19805;DHT22;10062;51.052;13.756;2023-08-20T09:38:08;37.20;1.00
19805;DHT22;10062;51.052;13.756;2023-08-20T09:40:40;34.80;1.00
19805;DHT22;10062;51.052;13.756;2023-08-20T09:43:13;33.30;1.00
19805;DHT22;10062;51.052;13.756;2023-08-20T09:45:47;35.20;1.00
19805;DHT22;10062;51.052;13.756;2023-08-20T09:48:20;38.40;1.00
19805;DHT22;10062;51.052;13.756;2023-08-20T09:50:55;40.80;1.00
19805;DHT22;10062;51.052;13.756;2023-08-20T09:53:34;43.80;1.00
19805;DHT22;10062;51.052;13.756;2023-08-20T09:56:10;45.60;1.00
19805;DHT22;10062;51.052;13.756;2023-08-20T09:58:44;44.00;1.00
19805;DHT22;10062;51.052;13.756;2023-08-20T10:01:17;43.30;1.00
19805;DHT22;10062;51.052;13.756;2023-08-20T10:03:49;43.00;1.00
19805;DHT22;10062;51.052;13.756;2023-08-20T10:06:21;40.80;1.00
19805;DHT22;10062;51.052;13.756;2023-08-20T10:08:56;39.60;1.00
19805;DHT22;10062;51.052;13.756;2023-08-20T10:11:29;38.00;1.00
19805;DHT22;10062;51.052;13.756;2023-08-20T10:14:01;37.70;1.00
19805;DHT22;10062;51.052;13.756;2023-08-20T10:16:33;38.00;1.00
19805;DHT22;10062;51.052;13.756;2023-08-20T10:19:05;38.40;1.00
19805;DHT22;10062;51.052;13.756;2023-08-20T10:21:43;39.80;1.00
19805;DHT22;10062;51.052;13.756;2023-08-20T10:24:18;42.40;1.00
19805;DHT22;10062;51.052;13.756;2023-08-20T10:27:07;44.40;1.00
19805;DHT22;10062;51.052;13.756;2023-08-20T10:29:40;45.80;1.00
19805;DHT22;10062;51.052;13.756;2023-08-20T10:32:13;47.00;1.00
19805;DHT22;10062;51.052;13.756;2023-08-20T10:34:50;48.60;1.00
19805;DHT22;10062;51.052;13.756;2023-08-20T10:37:26;49.80;1.00
19805;DHT22;10062;51.052;13.756;2023-08-20T10:40:00;50.90;1.00
19805;DHT22;10062;51.052;13.756;2023-08-20T10:42:31;51.80;1.00
19805;DHT22;10062;51.052;13.756;2023-08-20T10:45:06;51.60;1.00
19805;DHT22;10062;51.052;13.756;2023-08-20T10:47:43;50.60;1.00
19805;DHT22;10062;51.052;13.756;2023-08-20T10:50:16;51.00;1.00
19805;DHT22;10062;51.052;13.756;2023-08-20T10:52:50;52.20;1.00
19805;DHT22;10062;51.052;13.756;2023-08-20T10:55:24;53.60;1.00
19805;DHT22;10062;51.052;13.756;2023-08-20T10:57:56;54.30;1.00
19805;DHT22;10062;51.052;13.756;2023-08-20T11:00:29;54.70;1.00
19805;DHT22;10062;51.052;13.756;2023-08-20T11:03:02;54.70;1.00
19805;DHT22;10062;51.052;13.756;2023-08-20T11:05:34;54.70;1.00
19805;DHT22;10062;51.052;13.756;2023-08-20T11:08:06;53.60;1.00
19805;DHT22;10062;51.052;13.756;2023-08-20T11:10:40;53.00;1.00
19805;DHT22;10062;51.052;13.756;2023-08-20T11:13:12;53.50;1.00
19805;DHT22;10062;51.052;13.756;2023-08-20T11:15:43;53.20;1.00
19805;DHT22;10062;51.052;13.756;2023-08-20T11:18:16;53.20;1.00
19805;DHT22;10062;51.052;13.756;2023-08-20T11:20:48;52.50;1.00
19805;DHT22;10062;51.052;13.756;2023-08-20T11:23:20;51.70;1.00
19805;DHT22;10062;51.052;13.756;2023-08-20T11:25:53;50.40;1.00
19805;DHT22;10062;51.052;13.756;2023-08-20T11:28:26;49.70;1.00
19805;DHT22;10062;51.052;13.756;2023-08-20T11:30:58;48.70;1.00
19805;DHT22;10062;51.052;13.756;2023-08-20T11:33:35;46.70;1.00
19805;DHT22;10062;51.052;13.756;2023-08-20T11:36:07;45.00;1.00
19805;DHT22;10062;51.052;13.756;2023-08-20T11:38:39;42.90;1.00
19805;DHT22;10062;51.052;13.756;2023-08-20T11:41:12;42.40;1.00
19805;DHT22;10062;51.052;13.756;2023-08-20T11:43:44;42.20;1.00
19805;DHT22;10062;51.052;13.756;2023-08-20T11:46:18;41.50;1.00
19805;DHT22;10062;51.052;13.756;2023-08-20T11:49:00;41.00;1.00
19805;DHT22;10062;51.052;13.756;2023-08-20T11:51:35;40.10;1.00
19805;DHT22;10062;51.052;13.756;2023-08-20T11:54:11;39.70;1.00
19805;DHT22;10062;51.052;13.756;2023-08-20T11:56:46;39.60;1.00
19805;DHT22;10062;51.052;13.756;2023-08-20T11:59:19;39.70;1.00
19805;DHT22;10062;51.052;13.756;2023-08-20T12:01:52;39.50;1.00
19805;DHT22;10062;51.052;13.756;2023-08-20T12:04:27;39.70;1.00
19805;DHT22;10062;51.052;13.756;2023-08-20T12:07:04;39.70;1.00
19805;DHT22;10062;51.052;13.756;2023-08-20T12:09:36;39.80;1.00
19805;DHT22;10062;51.052;13.756;2023-08-20T12:12:09;39.70;1.00
19805;DHT22;10062;51.052;13.756;2023-08-20T12:14:41;39.60;1.00
19805;DHT22;10062;51.052;13.756;2023-08-20T12:17:17;39.50;1.00
19805;DHT22;10062;51.052;13.756;2023-08-20T12:19:49;39.30;1.00
19805;DHT22;10062;51.052;13.756;2023-08-20T12:22:20;39.10;1.00
19805;DHT22;10062;51.052;13.756;2023-08-20T12:24:52;39.00;1.00
19805;DHT22;10062;51.052;13.756;2023-08-20T12:27:25;39.10;1.00
19805;DHT22;10062;51.052;13.756;2023-08-20T12:29:58;39.00;1.00
19805;DHT22;10062;51.052;13.756;2023-08-20T12:32:30;38.30;1.00
19805;DHT22;10062;51.052;13.756;2023-08-20T12:35:01;38.30;1.00
19805;DHT22;10062;51.052;13.756;2023-08-20T12:37:34;38.60;1.00
19805;DHT22;10062;51.052;13.756;2023-08-20T12:40:07;39.00;1.00
19805;DHT22;10062;51.052;13.756;2023-08-20T12:42:43;39.10;1.00
19805;DHT22;10062;51.052;13.756;2023-08-20T12:45:15;39.20;1.00
19805;DHT22;10062;51.052;13.756;2023-08-20T12:47:47;39.20;1.00
19805;DHT22;10062;51.052;13.756;2023-08-20T12:50:18;39.00;1.00
19805;DHT22;10062;51.052;13.756;2023-08-20T12:52:50;38.90;1.00
19805;DHT22;10062;51.052;13.756;2023-08-20T12:55:22;39.20;1.00
19805;DHT22;10062;51.052;13.756;2023-08-20T12:57:57;39.30;1.00
19805;DHT22;10062;51.052;13.756;2023-08-20T13:00:30;38.90;1.00
19805;DHT22;10062;51.052;13.756;2023-08-20T13:03:02;38.80;1.00
19805;DHT22;10062;51.052;13.756;2023-08-20T13:05:34;39.00;1.00
19805;DHT22;10062;51.052;13.756;2023-08-20T13:08:07;39.20;1.00
19805;DHT22;10062;51.052;13.756;2023-08-20T13:10:40;39.30;1.00
19805;DHT22;10062;51.052;13.756;2023-08-20T13:13:14;39.00;1.00
19805;DHT22;10062;51.052;13.756;2023-08-20T13:15:47;38.80;1.00
19805;DHT22;10062;51.052;13.756;2023-08-20T13:18:19;38.90;1.00
19805;DHT22;10062;51.052;13.756;2023-08-20T13:20:55;39.00;1.00
19805;DHT22;10062;51.052;13.756;2023-08-20T13:23:27;39.20;1.00
19805;DHT22;10062;51.052;13.756;2023-08-20T13:25:58;38.90;1.00
19805;DHT22;10062;51.052;13.756;2023-08-20T13:28:31;38.70;1.00
19805;DHT22;10062;51.052;13.756;2023-08-20T13:31:03;38.60;1.00
19805;DHT22;10062;51.052;13.756;2023-08-20T13:33:35;38.60;1.00
19805;DHT22;10062;51.052;13.756;2023-08-20T13:36:07;38.50;1.00
19805;DHT22;10062;51.052;13.756;2023-08-20T13:38:39;38.60;1.00
19805;DHT22;10062;51.052;13.756;2023-08-20T13:41:10;38.40;1.00
19805;DHT22;10062;51.052;13.756;2023-08-20T13:43:44;38.20;1.00
19805;DHT22;10062;51.052;13.756;2023-08-20T13:46:15;37.90;1.00
19805;DHT22;10062;51.052;13.756;2023-08-20T13:48:47;37.80;1.00
19805;DHT22;10062;51.052;13.756;2023-08-20T13:51:19;37.30;1.00
19805;DHT22;10062;51.052;13.756;2023-08-20T13:53:51;37.20;1.00
19805;DHT22;10062;51.052;13.756;2023-08-20T13:56:22;37.00;1.00
19805;DHT22;10062;51.052;13.756;2023-08-20T13:58:56;36.70;1.00
19805;DHT22;10062;51.052;13.756;2023-08-20T14:01:28;36.50;1.00
19805;DHT22;10062;51.052;13.756;2023-08-20T14:03:59;36.40;1.00
19805;DHT22;10062;51.052;13.756;2023-08-20T14:06:31;36.30;1.00
19805;DHT22;10062;51.052;13.756;2023-08-20T14:09:03;36.20;1.00
19805;DHT22;10062;51.052;13.756;2023-08-20T14:11:36;36.20;1.00
19805;DHT22;10062;51.052;13.756;2023-08-20T14:14:09;38.70;1.00
19805;DHT22;10062;51.052;13.756;2023-08-20T14:16:41;36.00;1.00
19805;DHT22;10062;51.052;13.756;2023-08-20T14:19:13;36.00;1.00
19805;DHT22;10062;51.052;13.756;2023-08-20T14:21:45;36.10;1.00
19805;DHT22;10062;51.052;13.756;2023-08-20T14:24:16;36.30;1.00
19805;DHT22;10062;51.052;13.756;2023-08-20T14:26:48;36.40;1.00
19805;DHT22;10062;51.052;13.756;2023-08-20T14:29:21;36.60;1.00
19805;DHT22;10062;51.052;13.756;2023-08-20T14:34:25;36.40;1.00
19805;DHT22;10062;51.052;13.756;2023-08-20T14:36:57;36.50;1.00
19805;DHT22;10062;51.052;13.756;2023-08-20T14:39:29;36.70;1.00
19805;DHT22;10062;51.052;13.756;2023-08-20T14:42:01;36.80;1.00
19805;DHT22;10062;51.052;13.756;2023-08-20T14:44:35;36.90;1.00
19805;DHT22;10062;51.052;13.756;2023-08-20T14:47:07;36.90;1.00
19805;DHT22;10062;51.052;13.756;2023-08-20T14:49:38;36.90;1.00
19805;DHT22;10062;51.052;13.756;2023-08-20T14:52:10;36.90;1.00
19805;DHT22;10062;51.052;13.756;2023-08-20T14:54:42;36.70;1.00
19805;DHT22;10062;51.052;13.756;2023-08-20T14:57:14;36.60;1.00
19805;DHT22;10062;51.052;13.756;2023-08-20T14:59:50;36.50;1.00
19805;DHT22;10062;51.052;13.756;2023-08-20T15:02:22;35.90;1.00
19805;DHT22;10062;51.052;13.756;2023-08-20T15:04:54;35.80;1.00
19805;DHT22;10062;51.052;13.756;2023-08-20T15:07:26;35.60;1.00
19805;DHT22;10062;51.052;13.756;2023-08-20T15:09:57;35.00;1.00
19805;DHT22;10062;51.052;13.756;2023-08-20T15:12:30;34.60;1.00
19805;DHT22;10062;51.052;13.756;2023-08-20T15:15:05;34.80;1.00
19805;DHT22;10062;51.052;13.756;2023-08-20T15:17:40;34.90;1.00
19805;DHT22;10062;51.052;13.756;2023-08-20T15:20:12;34.90;1.00
19805;DHT22;10062;51.052;13.756;2023-08-20T15:22:44;34.80;1.00
19805;DHT22;10062;51.052;13.756;2023-08-20T15:25:15;34.70;1.00
19805;DHT22;10062;51.052;13.756;2023-08-20T15:27:49;34.90;1.00
19805;DHT22;10062;51.052;13.756;2023-08-20T15:30:22;35.00;1.00
19805;DHT22;10062;51.052;13.756;2023-08-20T15:32:55;35.00;1.00
19805;DHT22;10062;51.052;13.756;2023-08-20T15:35:27;35.10;1.00
19805;DHT22;10062;51.052;13.756;2023-08-20T15:37:59;35.30;1.00
19805;DHT22;10062;51.052;13.756;2023-08-20T15:40:30;35.50;1.00
19805;DHT22;10062;51.052;13.756;2023-08-20T15:43:02;35.60;1.00
19805;DHT22;10062;51.052;13.756;2023-08-20T15:45:36;35.70;1.00
19805;DHT22;10062;51.052;13.756;2023-08-20T15:48:07;35.80;1.00
19805;DHT22;10062;51.052;13.756;2023-08-20T15:50:39;35.40;1.00
19805;DHT22;10062;51.052;13.756;2023-08-20T15:53:11;35.40;1.00
19805;DHT22;10062;51.052;13.756;2023-08-20T15:55:43;35.30;1.00
19805;DHT22;10062;51.052;13.756;2023-08-20T15:58:15;35.10;1.00
19805;DHT22;10062;51.052;13.756;2023-08-20T16:00:48;34.70;1.00
19805;DHT22;10062;51.052;13.756;2023-08-20T16:03:20;34.70;1.00